»·PEaware :: SWA4889 KDEN-KSAN

SWA4889 :: KDEN-KSAN

FLIGHT INFORMATION

Flight Status: Arrived
Operator:
Southwest Airlines
More flights by this operator :: More flights under this callsign
Pilot: Andrew G. (414)
Aircraft: BOEING 737-800
(B738)
More flights by this aircraft type
Origin: KDEN Denver Intl
United States
Destination: KSAN San Diego Intl-Lindbergh
United States
More flights between these airports :: More routes between these airports
Route: BAYLR6 TEHRU PLNDL Q86 TTRUE LUCKI1
File this flight plan on PilotEdge
Remarks: RMK / SIMBRIEF
Altitude:
(Current/Filed)
30,000ft
Speed:
(Current/Filed)
481kts
Departed: 31-Aug-21 01:32 PM
Arrived: 31-Aug-21 03:21 PM
Distance/Time
Traveled:
740nm/1:49
Distance/Time
To Go:
Arrived

Flight Plot

Page will automatically refresh every two minutes.

Flight plan parsing failed; only flown route is shown


Map Options




Map Legend


Flown Route
Filed Route
Departure Airport
Arrival Airport
Navaid (VOR, NDB)
Fix

Horizontal Profiles

Position Reports

Time Latitude Longitude Heading Altitude Ground
Speed
31-Aug-21 12:51 39.862553 -104.672462 0 5442ft 0kts
31-Aug-21 12:52 39.862553 -104.672462 0 5442ft 0kts
31-Aug-21 12:53 39.862553 -104.672462 0 5442ft 0kts
31-Aug-21 12:54 39.862553 -104.672462 0 5442ft 0kts
31-Aug-21 12:55 39.862553 -104.672462 0 5442ft 0kts
31-Aug-21 12:56 39.862553 -104.672462 0 5442ft 0kts
31-Aug-21 12:57 39.862553 -104.672462 0 5442ft 0kts
31-Aug-21 12:58 39.862553 -104.672462 0 5442ft 0kts
31-Aug-21 12:59 39.862553 -104.672462 0 5442ft 0kts
31-Aug-21 13:00 39.862553 -104.672462 0 5442ft 0kts
31-Aug-21 13:01 39.862553 -104.672462 0 5442ft 0kts
31-Aug-21 13:02 39.862553 -104.672462 0 5442ft 0kts
31-Aug-21 13:03 39.862553 -104.672462 0 5442ft 0kts
31-Aug-21 13:04 39.862553 -104.672462 0 5442ft 0kts
31-Aug-21 13:05 39.862553 -104.672462 0 5442ft 0kts
31-Aug-21 13:06 39.862553 -104.672462 0 5442ft 0kts
31-Aug-21 13:07 39.862553 -104.672462 0 5442ft 0kts
31-Aug-21 13:08 39.862553 -104.672462 0 5442ft 0kts
31-Aug-21 13:09 39.862553 -104.672462 0 5442ft 0kts
31-Aug-21 13:10 39.862553 -104.672462 0 5442ft 0kts
31-Aug-21 13:11 39.862553 -104.672462 0 5442ft 0kts
31-Aug-21 13:12 39.862553 -104.672462 0 5442ft 0kts
31-Aug-21 13:13 39.862553 -104.672462 0 5442ft 0kts
31-Aug-21 13:14 39.862553 -104.672462 0 5442ft 0kts
31-Aug-21 13:15 39.862553 -104.672462 0 5442ft 0kts
31-Aug-21 13:16 39.862250 -104.672460 359 5442ft 2kts
31-Aug-21 13:17 39.861608 -104.672457 359 5442ft 2kts
31-Aug-21 13:18 39.861293 -104.672905 90 5442ft 2kts
31-Aug-21 13:19 39.861293 -104.672931 90 5442ft 0kts
31-Aug-21 13:20 39.861293 -104.672931 90 5442ft 0kts
31-Aug-21 13:21 39.861293 -104.672931 90 5442ft 0kts
31-Aug-21 13:22 39.861293 -104.672931 90 5442ft 0kts
31-Aug-21 13:23 39.861199 -104.672938 284 5442ft 1kts
31-Aug-21 13:24 39.861306 -104.676144 270 5442ft 17kts
31-Aug-21 13:25 39.861369 -104.682524 270 5442ft 16kts
31-Aug-21 13:26 39.859453 -104.683875 180 5442ft 10kts
31-Aug-21 13:27 39.854513 -104.683972 180 5442ft 23kts
31-Aug-21 13:28 39.846954 -104.684160 182 5442ft 28kts
31-Aug-21 13:29 39.841440 -104.684283 173 5442ft 0kts
31-Aug-21 13:30 39.840658 -104.685518 269 5442ft 16kts
31-Aug-21 13:31 39.841046 -104.729192 270 5760ft 196kts
31-Aug-21 13:32 39.825573 -104.800481 232 7634ft 240kts
31-Aug-21 13:33 39.785397 -104.883745 239 9063ft 294kts
31-Aug-21 13:34 39.757207 -104.986581 254 11272ft 321kts
31-Aug-21 13:35 39.722994 -105.106724 246 12159ft 386kts
31-Aug-21 13:36 39.679089 -105.238374 247 14098ft 402kts
31-Aug-21 13:37 39.634833 -105.372639 247 16221ft 409kts
31-Aug-21 13:38 39.589367 -105.510231 247 18227ft 417kts
31-Aug-21 13:39 39.543637 -105.649702 249 20000ft 426kts
31-Aug-21 13:40 39.503860 -105.795904 251 21543ft 434kts
31-Aug-21 13:41 39.463086 -105.944528 250 22886ft 442kts
31-Aug-21 13:42 39.421047 -106.093740 250 24437ft 440kts
31-Aug-21 13:43 39.378827 -106.243156 250 25566ft 447kts
31-Aug-21 13:44 39.335896 -106.395727 250 26560ft 453kts
31-Aug-21 13:45 39.292080 -106.549226 250 27480ft 458kts
31-Aug-21 13:46 39.245855 -106.701198 243 28715ft 454kts
31-Aug-21 13:47 39.173351 -106.834144 233 30021ft 452kts
31-Aug-21 13:48 39.095236 -106.960874 233 30180ft 452kts
31-Aug-21 13:49 39.016915 -107.087832 233 30210ft 452kts
31-Aug-21 13:50 38.938739 -107.215454 233 30224ft 453kts
31-Aug-21 13:51 38.860551 -107.341777 233 30208ft 453kts
31-Aug-21 13:52 38.781859 -107.468286 232 30166ft 454kts
31-Aug-21 13:53 38.702882 -107.594691 232 30087ft 454kts
31-Aug-21 13:54 38.623942 -107.720565 232 30041ft 455kts
31-Aug-21 13:55 38.544187 -107.847235 232 30019ft 456kts
31-Aug-21 13:56 38.464738 -107.972900 232 30020ft 457kts
31-Aug-21 13:57 38.384842 -108.098795 232 30038ft 456kts
31-Aug-21 13:58 38.304589 -108.224759 232 30080ft 456kts
31-Aug-21 14:00 38.224702 -108.349669 231 30118ft 456kts
31-Aug-21 14:01 38.144305 -108.474898 231 30138ft 455kts
31-Aug-21 14:02 38.064364 -108.598946 231 30170ft 455kts
31-Aug-21 14:03 37.984070 -108.723047 231 30128ft 455kts
31-Aug-21 14:04 37.908515 -108.839405 231 30096ft 455kts
31-Aug-21 14:05 37.823079 -108.970461 231 30096ft 455kts
31-Aug-21 14:06 37.742107 -109.094208 231 30091ft 454kts
31-Aug-21 14:07 37.661815 -109.216441 231 30093ft 454kts
31-Aug-21 14:08 37.580983 -109.339037 230 30097ft 454kts
31-Aug-21 14:09 37.500186 -109.461127 230 30099ft 453kts
31-Aug-21 14:10 37.419022 -109.583324 230 30091ft 453kts
31-Aug-21 14:11 37.338277 -109.704445 230 30082ft 453kts
31-Aug-21 14:12 37.257110 -109.825727 230 30061ft 453kts
31-Aug-21 14:13 37.176326 -109.946023 230 30037ft 454kts
31-Aug-21 14:14 37.094582 -110.067289 230 30027ft 453kts
31-Aug-21 14:15 37.013397 -110.187284 229 30008ft 453kts
31-Aug-21 14:16 36.931324 -110.308146 229 29990ft 454kts
31-Aug-21 14:17 36.849468 -110.428264 229 29982ft 454kts
31-Aug-21 14:18 36.767758 -110.547768 229 29964ft 454kts
31-Aug-21 14:19 36.685369 -110.667787 229 29949ft 454kts
31-Aug-21 14:20 36.603407 -110.786748 229 29952ft 454kts
31-Aug-21 14:21 36.521078 -110.905833 229 29950ft 454kts
31-Aug-21 14:21 36.452223 -111.005099 229 29954ft 454kts
31-Aug-21 14:23 36.356022 -111.143304 228 29968ft 454kts
31-Aug-21 14:24 36.273349 -111.261622 228 29985ft 453kts
31-Aug-21 14:25 36.190731 -111.379460 228 30002ft 453kts
31-Aug-21 14:26 36.107912 -111.497156 228 30029ft 453kts
31-Aug-21 14:26 36.038917 -111.595182 228 30055ft 453kts
31-Aug-21 14:27 35.956237 -111.712043 228 30090ft 453kts
31-Aug-21 14:28 35.873094 -111.828764 228 30123ft 452kts
31-Aug-21 14:30 35.792452 -111.979261 240 30133ft 453kts
31-Aug-21 14:31 35.731280 -112.115003 239 30134ft 453kts
31-Aug-21 14:31 35.678897 -112.226690 238 30133ft 453kts
31-Aug-21 14:32 35.615213 -112.361371 238 30124ft 454kts
31-Aug-21 14:33 35.552382 -112.495383 238 30118ft 454kts
31-Aug-21 14:34 35.489207 -112.629822 238 30110ft 455kts
31-Aug-21 14:35 35.425875 -112.764421 238 30097ft 456kts
31-Aug-21 14:37 35.352095 -112.922283 238 30076ft 457kts
31-Aug-21 14:37 35.299119 -113.033727 238 30056ft 457kts
31-Aug-21 14:38 35.234808 -113.168699 238 30000ft 458kts
31-Aug-21 14:40 35.151802 -113.318562 230 29953ft 455kts
31-Aug-21 14:40 35.087253 -113.419817 230 29932ft 456kts
31-Aug-21 14:41 35.009577 -113.542035 230 29913ft 455kts
31-Aug-21 14:42 34.932255 -113.664059 230 29897ft 454kts
31-Aug-21 14:43 34.855189 -113.786142 230 29877ft 454kts
31-Aug-21 14:44 34.778556 -113.908151 230 29847ft 453kts
31-Aug-21 14:45 34.702300 -114.030250 230 29788ft 453kts
31-Aug-21 14:46 34.626972 -114.152871 230 29744ft 452kts
31-Aug-21 14:47 34.552012 -114.274733 230 29718ft 452kts
31-Aug-21 14:48 34.474448 -114.394537 222 29712ft 450kts
31-Aug-21 14:50 34.367068 -114.514744 220 29721ft 449kts
31-Aug-21 14:50 34.290946 -114.599717 220 29727ft 449kts
31-Aug-21 14:51 34.199269 -114.702246 220 29743ft 449kts
31-Aug-21 14:52 34.107694 -114.804860 220 29749ft 449kts
31-Aug-21 14:53 34.016323 -114.907469 220 29756ft 449kts
31-Aug-21 14:54 33.925600 -115.009518 220 29760ft 445kts
31-Aug-21 14:55 33.834856 -115.111751 220 29759ft 445kts
31-Aug-21 14:56 33.744956 -115.213292 220 29754ft 445kts
31-Aug-21 14:57 33.654449 -115.315682 220 29745ft 445kts
31-Aug-21 14:58 33.565363 -115.417928 227 29700ft 446kts
31-Aug-21 14:59 33.527966 -115.562283 262 29681ft 468kts
31-Aug-21 15:00 33.523711 -115.717944 262 29657ft 469kts
31-Aug-21 15:01 33.517818 -115.873445 263 26823ft 468kts
31-Aug-21 15:02 33.473678 -116.016434 235 24085ft 468kts
31-Aug-21 15:03 33.399910 -116.143066 233 21430ft 458kts
31-Aug-21 15:04 33.319954 -116.255766 213 18852ft 433kts
31-Aug-21 15:05 33.216454 -116.321342 205 15096ft 415kts
31-Aug-21 15:06 33.118773 -116.378187 205 14204ft 361kts
31-Aug-21 15:07 33.029820 -116.430015 205 12200ft 350kts
31-Aug-21 15:08 32.954069 -116.495752 220 10838ft 322kts
31-Aug-21 15:09 32.888775 -116.562038 219 10005ft 291kts
31-Aug-21 15:10 32.829083 -116.622153 220 9021ft 281kts
31-Aug-21 15:11 32.770625 -116.686200 233 7549ft 287kts
31-Aug-21 15:12 32.732827 -116.765465 240 6266ft 274kts
31-Aug-21 15:13 32.699585 -116.841804 248 5650ft 253kts
31-Aug-21 15:14 32.677477 -116.916128 250 4551ft 222kts
31-Aug-21 15:15 32.682696 -116.979642 285 3617ft 178kts
31-Aug-21 15:16 32.695878 -117.033746 284 2807ft 171kts
31-Aug-21 15:17 32.708486 -117.085992 284 2029ft 152kts
31-Aug-21 15:18 32.719718 -117.132465 284 1077ft 140kts
31-Aug-21 15:19 32.730292 -117.176168 283 176ft 138kts
31-Aug-21 15:20 32.736306 -117.201105 278 25ft 17kts
31-Aug-21 15:21 32.735492 -117.201770 106 25ft 4kts
31-Aug-21 15:22 32.734846 -117.199048 106 25ft 16kts
31-Aug-21 15:23 32.733056 -117.195369 172 25ft 8kts
31-Aug-21 15:24 32.732369 -117.195722 308 25ft 0kts
31-Aug-21 15:25 32.732369 -117.195722 308 25ft 0kts
31-Aug-21 15:26 32.732369 -117.195722 308 25ft 0kts
31-Aug-21 15:27 32.732369 -117.195722 308 25ft 0kts
31-Aug-21 15:28 32.732369 -117.195722 308 25ft 0kts
31-Aug-21 15:29 32.732369 -117.195722 308 25ft 0kts
31-Aug-21 15:30 32.732369 -117.195722 308 25ft 0kts
31-Aug-21 15:31 32.732369 -117.195722 308 25ft 0kts
31-Aug-21 15:32 32.732369 -117.195722 308 25ft 0kts
31-Aug-21 15:33 32.732369 -117.195722 308 25ft 0kts

Navigation Log

Ident Type
Flight plan parsing failed, navigation log unavailable